sensor_id;sensor_type;location;lat;lon;timestamp;P1;durP1;ratioP1;P2;durP2;ratioP2
297;SDS011;133;49.626;9.680;2023-07-31T00:01:42;6.53;;;2.77;;
297;SDS011;133;49.626;9.680;2023-07-31T00:04:07;6.33;;;3.03;;
297;SDS011;133;49.626;9.680;2023-07-31T00:06:33;2.80;;;2.60;;
297;SDS011;133;49.626;9.680;2023-07-31T00:08:58;5.80;;;3.03;;
297;SDS011;133;49.626;9.680;2023-07-31T00:11:24;4.50;;;2.77;;
297;SDS011;133;49.626;9.680;2023-07-31T00:13:49;5.60;;;2.70;;
297;SDS011;133;49.626;9.680;2023-07-31T00:16:15;7.30;;;2.63;;
297;SDS011;133;49.626;9.680;2023-07-31T00:18:41;8.70;;;2.90;;
297;SDS011;133;49.626;9.680;2023-07-31T00:21:06;5.03;;;3.00;;
297;SDS011;133;49.626;9.680;2023-07-31T00:23:32;4.27;;;2.70;;
297;SDS011;133;49.626;9.680;2023-07-31T00:25:57;7.20;;;3.23;;
297;SDS011;133;49.626;9.680;2023-07-31T00:28:23;4.50;;;2.87;;
297;SDS011;133;49.626;9.680;2023-07-31T00:30:49;4.33;;;2.60;;
297;SDS011;133;49.626;9.680;2023-07-31T00:33:14;3.83;;;3.10;;
297;SDS011;133;49.626;9.680;2023-07-31T00:35:40;4.23;;;2.77;;
297;SDS011;133;49.626;9.680;2023-07-31T00:38:05;6.87;;;2.87;;
297;SDS011;133;49.626;9.680;2023-07-31T00:40:35;4.00;;;2.93;;
297;SDS011;133;49.626;9.680;2023-07-31T00:43:02;4.30;;;2.90;;
297;SDS011;133;49.626;9.680;2023-07-31T00:45:28;5.70;;;2.60;;
297;SDS011;133;49.626;9.680;2023-07-31T00:47:54;4.57;;;3.00;;
297;SDS011;133;49.626;9.680;2023-07-31T00:50:20;3.87;;;2.50;;
297;SDS011;133;49.626;9.680;2023-07-31T00:52:50;7.13;;;3.20;;
297;SDS011;133;49.626;9.680;2023-07-31T00:55:15;4.90;;;2.77;;
297;SDS011;133;49.626;9.680;2023-07-31T00:57:42;4.63;;;2.60;;
297;SDS011;133;49.626;9.680;2023-07-31T01:00:08;6.00;;;2.83;;
297;SDS011;133;49.626;9.680;2023-07-31T01:02:34;6.03;;;3.00;;
297;SDS011;133;49.626;9.680;2023-07-31T01:05:01;3.60;;;2.90;;
297;SDS011;133;49.626;9.680;2023-07-31T01:07:35;5.27;;;2.87;;
297;SDS011;133;49.626;9.680;2023-07-31T01:10:23;4.20;;;2.97;;
297;SDS011;133;49.626;9.680;2023-07-31T01:12:51;4.60;;;3.00;;
297;SDS011;133;49.626;9.680;2023-07-31T01:15:18;4.67;;;3.00;;
297;SDS011;133;49.626;9.680;2023-07-31T01:17:45;5.40;;;2.90;;
297;SDS011;133;49.626;9.680;2023-07-31T01:20:21;4.03;;;3.20;;
297;SDS011;133;49.626;9.680;2023-07-31T01:25:44;8.23;;;3.17;;
297;SDS011;133;49.626;9.680;2023-07-31T01:28:37;4.57;;;3.17;;
297;SDS011;133;49.626;9.680;2023-07-31T01:31:28;5.00;;;2.97;;
297;SDS011;133;49.626;9.680;2023-07-31T01:33:56;6.20;;;2.90;;
297;SDS011;133;49.626;9.680;2023-07-31T01:36:25;6.90;;;2.93;;
297;SDS011;133;49.626;9.680;2023-07-31T01:38:51;7.27;;;2.93;;
297;SDS011;133;49.626;9.680;2023-07-31T01:41:19;7.37;;;3.03;;
297;SDS011;133;49.626;9.680;2023-07-31T01:43:46;7.50;;;2.80;;
297;SDS011;133;49.626;9.680;2023-07-31T01:46:11;4.60;;;3.37;;
297;SDS011;133;49.626;9.680;2023-07-31T01:48:37;5.23;;;2.53;;
297;SDS011;133;49.626;9.680;2023-07-31T01:51:02;3.73;;;2.90;;
297;SDS011;133;49.626;9.680;2023-07-31T01:53:28;3.13;;;2.50;;
297;SDS011;133;49.626;9.680;2023-07-31T01:55:56;5.60;;;2.97;;
297;SDS011;133;49.626;9.680;2023-07-31T01:58:21;4.50;;;3.03;;
297;SDS011;133;49.626;9.680;2023-07-31T02:00:47;7.30;;;3.20;;
297;SDS011;133;49.626;9.680;2023-07-31T02:03:12;4.20;;;2.73;;
297;SDS011;133;49.626;9.680;2023-07-31T02:05:47;4.60;;;3.10;;
297;SDS011;133;49.626;9.680;2023-07-31T02:08:14;6.03;;;3.53;;
297;SDS011;133;49.626;9.680;2023-07-31T02:10:40;3.53;;;3.10;;
297;SDS011;133;49.626;9.680;2023-07-31T02:13:06;5.47;;;3.23;;
297;SDS011;133;49.626;9.680;2023-07-31T02:15:32;7.10;;;3.20;;
297;SDS011;133;49.626;9.680;2023-07-31T02:17:58;6.53;;;3.03;;
297;SDS011;133;49.626;9.680;2023-07-31T02:20:23;7.27;;;3.10;;
297;SDS011;133;49.626;9.680;2023-07-31T02:22:49;5.77;;;3.30;;
297;SDS011;133;49.626;9.680;2023-07-31T02:25:15;4.13;;;2.87;;
297;SDS011;133;49.626;9.680;2023-07-31T02:27:40;5.50;;;3.20;;
297;SDS011;133;49.626;9.680;2023-07-31T02:30:06;4.50;;;3.10;;
297;SDS011;133;49.626;9.680;2023-07-31T02:32:32;3.40;;;2.60;;
297;SDS011;133;49.626;9.680;2023-07-31T02:34:58;6.03;;;3.17;;
297;SDS011;133;49.626;9.680;2023-07-31T02:37:24;5.17;;;3.27;;
297;SDS011;133;49.626;9.680;2023-07-31T02:39:50;6.77;;;3.30;;
297;SDS011;133;49.626;9.680;2023-07-31T02:42:15;7.83;;;3.00;;
297;SDS011;133;49.626;9.680;2023-07-31T02:44:41;5.80;;;2.80;;
297;SDS011;133;49.626;9.680;2023-07-31T02:47:07;4.27;;;3.10;;
297;SDS011;133;49.626;9.680;2023-07-31T02:49:32;5.30;;;3.07;;
297;SDS011;133;49.626;9.680;2023-07-31T02:51:58;6.50;;;3.43;;
297;SDS011;133;49.626;9.680;2023-07-31T02:54:23;7.20;;;3.10;;
297;SDS011;133;49.626;9.680;2023-07-31T02:56:49;3.90;;;3.00;;
297;SDS011;133;49.626;9.680;2023-07-31T02:59:15;4.37;;;3.80;;
297;SDS011;133;49.626;9.680;2023-07-31T03:01:40;6.60;;;2.80;;
297;SDS011;133;49.626;9.680;2023-07-31T03:04:06;7.97;;;3.30;;
297;SDS011;133;49.626;9.680;2023-07-31T03:06:32;6.70;;;3.20;;
297;SDS011;133;49.626;9.680;2023-07-31T03:08:57;5.23;;;3.00;;
297;SDS011;133;49.626;9.680;2023-07-31T03:11:23;6.73;;;3.33;;
297;SDS011;133;49.626;9.680;2023-07-31T03:13:49;3.77;;;2.90;;
297;SDS011;133;49.626;9.680;2023-07-31T03:16:14;5.23;;;3.23;;
297;SDS011;133;49.626;9.680;2023-07-31T03:18:40;3.80;;;3.10;;
297;SDS011;133;49.626;9.680;2023-07-31T03:21:06;5.00;;;3.60;;
297;SDS011;133;49.626;9.680;2023-07-31T03:23:31;9.07;;;3.40;;
297;SDS011;133;49.626;9.680;2023-07-31T03:25:58;3.60;;;2.50;;
297;SDS011;133;49.626;9.680;2023-07-31T03:28:24;5.83;;;3.50;;
297;SDS011;133;49.626;9.680;2023-07-31T03:30:50;6.53;;;3.10;;
297;SDS011;133;49.626;9.680;2023-07-31T03:33:17;5.47;;;3.23;;
297;SDS011;133;49.626;9.680;2023-07-31T03:35:42;6.83;;;3.30;;
297;SDS011;133;49.626;9.680;2023-07-31T03:38:08;5.00;;;3.30;;
297;SDS011;133;49.626;9.680;2023-07-31T03:40:34;6.70;;;3.33;;
297;SDS011;133;49.626;9.680;2023-07-31T03:42:59;6.97;;;3.20;;
297;SDS011;133;49.626;9.680;2023-07-31T03:45:25;9.03;;;3.10;;
297;SDS011;133;49.626;9.680;2023-07-31T03:47:50;6.07;;;3.30;;
297;SDS011;133;49.626;9.680;2023-07-31T03:50:16;4.07;;;3.10;;
297;SDS011;133;49.626;9.680;2023-07-31T03:52:42;6.27;;;3.43;;
297;SDS011;133;49.626;9.680;2023-07-31T03:55:08;6.03;;;3.00;;
297;SDS011;133;49.626;9.680;2023-07-31T03:57:33;5.50;;;4.20;;
297;SDS011;133;49.626;9.680;2023-07-31T03:59:59;4.83;;;3.57;;
297;SDS011;133;49.626;9.680;2023-07-31T04:02:25;3.50;;;3.20;;
297;SDS011;133;49.626;9.680;2023-07-31T04:04:50;6.47;;;3.30;;
297;SDS011;133;49.626;9.680;2023-07-31T04:07:16;7.53;;;3.77;;
297;SDS011;133;49.626;9.680;2023-07-31T04:09:41;4.63;;;3.10;;
297;SDS011;133;49.626;9.680;2023-07-31T04:12:07;5.20;;;3.23;;
297;SDS011;133;49.626;9.680;2023-07-31T04:14:33;6.80;;;3.40;;
297;SDS011;133;49.626;9.680;2023-07-31T04:16:58;4.57;;;3.20;;
297;SDS011;133;49.626;9.680;2023-07-31T04:19:24;4.47;;;2.67;;
297;SDS011;133;49.626;9.680;2023-07-31T04:21:49;4.83;;;3.27;;
297;SDS011;133;49.626;9.680;2023-07-31T04:24:15;6.67;;;3.30;;
297;SDS011;133;49.626;9.680;2023-07-31T04:26:47;6.40;;;3.43;;
297;SDS011;133;49.626;9.680;2023-07-31T04:29:12;4.80;;;3.40;;
297;SDS011;133;49.626;9.680;2023-07-31T04:31:38;5.47;;;3.53;;
297;SDS011;133;49.626;9.680;2023-07-31T04:34:03;5.83;;;3.30;;
297;SDS011;133;49.626;9.680;2023-07-31T04:36:29;3.90;;;3.23;;
297;SDS011;133;49.626;9.680;2023-07-31T04:38:55;7.90;;;4.10;;
297;SDS011;133;49.626;9.680;2023-07-31T04:41:21;6.40;;;3.30;;
297;SDS011;133;49.626;9.680;2023-07-31T04:43:46;4.13;;;3.00;;
297;SDS011;133;49.626;9.680;2023-07-31T04:46:12;4.73;;;3.20;;
297;SDS011;133;49.626;9.680;2023-07-31T04:48:37;5.30;;;3.10;;
297;SDS011;133;49.626;9.680;2023-07-31T04:51:03;6.43;;;3.23;;
297;SDS011;133;49.626;9.680;2023-07-31T04:53:29;12.30;;;3.60;;
297;SDS011;133;49.626;9.680;2023-07-31T04:55:54;3.43;;;3.00;;
297;SDS011;133;49.626;9.680;2023-07-31T04:58:20;5.37;;;3.27;;
297;SDS011;133;49.626;9.680;2023-07-31T05:00:45;6.90;;;3.20;;
297;SDS011;133;49.626;9.680;2023-07-31T05:03:11;4.63;;;2.80;;
297;SDS011;133;49.626;9.680;2023-07-31T05:05:36;5.43;;;3.17;;
297;SDS011;133;49.626;9.680;2023-07-31T05:08:02;5.23;;;3.23;;
297;SDS011;133;49.626;9.680;2023-07-31T05:10:28;3.07;;;2.90;;
297;SDS011;133;49.626;9.680;2023-07-31T05:12:53;6.40;;;3.60;;
297;SDS011;133;49.626;9.680;2023-07-31T05:15:19;5.63;;;3.23;;
297;SDS011;133;49.626;9.680;2023-07-31T05:17:45;6.43;;;3.30;;
297;SDS011;133;49.626;9.680;2023-07-31T05:20:10;9.93;;;3.20;;
297;SDS011;133;49.626;9.680;2023-07-31T05:22:36;3.83;;;3.00;;
297;SDS011;133;49.626;9.680;2023-07-31T05:25:02;6.00;;;3.27;;
297;SDS011;133;49.626;9.680;2023-07-31T05:27:28;5.97;;;3.13;;
297;SDS011;133;49.626;9.680;2023-07-31T05:29:53;4.23;;;3.13;;
297;SDS011;133;49.626;9.680;2023-07-31T05:32:19;5.50;;;3.40;;
297;SDS011;133;49.626;9.680;2023-07-31T05:34:44;5.30;;;3.30;;
297;SDS011;133;49.626;9.680;2023-07-31T05:37:10;3.20;;;3.03;;
297;SDS011;133;49.626;9.680;2023-07-31T05:39:36;11.40;;;3.40;;
297;SDS011;133;49.626;9.680;2023-07-31T05:42:02;5.27;;;3.10;;
297;SDS011;133;49.626;9.680;2023-07-31T05:44:28;5.00;;;3.07;;
297;SDS011;133;49.626;9.680;2023-07-31T05:46:53;4.30;;;3.70;;
297;SDS011;133;49.626;9.680;2023-07-31T05:49:19;5.00;;;3.23;;
297;SDS011;133;49.626;9.680;2023-07-31T05:51:44;5.90;;;3.40;;
297;SDS011;133;49.626;9.680;2023-07-31T05:54:10;9.13;;;3.70;;
297;SDS011;133;49.626;9.680;2023-07-31T05:56:36;5.43;;;3.03;;
297;SDS011;133;49.626;9.680;2023-07-31T05:59:01;12.20;;;5.30;;
297;SDS011;133;49.626;9.680;2023-07-31T06:01:27;5.10;;;3.10;;
297;SDS011;133;49.626;9.680;2023-07-31T06:03:53;6.50;;;3.30;;
297;SDS011;133;49.626;9.680;2023-07-31T06:06:19;6.07;;;3.90;;
297;SDS011;133;49.626;9.680;2023-07-31T06:08:45;8.23;;;3.57;;
297;SDS011;133;49.626;9.680;2023-07-31T06:11:10;4.60;;;3.33;;
297;SDS011;133;49.626;9.680;2023-07-31T06:13:36;5.70;;;3.43;;
297;SDS011;133;49.626;9.680;2023-07-31T06:16:01;4.90;;;3.53;;
297;SDS011;133;49.626;9.680;2023-07-31T06:18:30;6.60;;;3.67;;
297;SDS011;133;49.626;9.680;2023-07-31T06:20:59;7.30;;;3.30;;
297;SDS011;133;49.626;9.680;2023-07-31T06:23:25;5.43;;;3.20;;
297;SDS011;133;49.626;9.680;2023-07-31T06:25:50;6.10;;;3.10;;
297;SDS011;133;49.626;9.680;2023-07-31T06:28:16;13.17;;;3.60;;
297;SDS011;133;49.626;9.680;2023-07-31T06:30:41;5.57;;;3.37;;
297;SDS011;133;49.626;9.680;2023-07-31T06:33:08;5.30;;;3.40;;
297;SDS011;133;49.626;9.680;2023-07-31T06:35:34;5.30;;;4.30;;
297;SDS011;133;49.626;9.680;2023-07-31T06:38:00;5.90;;;3.20;;
297;SDS011;133;49.626;9.680;2023-07-31T06:40:26;4.73;;;3.00;;
297;SDS011;133;49.626;9.680;2023-07-31T06:42:52;9.20;;;3.40;;
297;SDS011;133;49.626;9.680;2023-07-31T06:45:17;6.20;;;3.57;;
297;SDS011;133;49.626;9.680;2023-07-31T06:47:43;3.93;;;2.90;;
297;SDS011;133;49.626;9.680;2023-07-31T06:50:09;4.43;;;3.20;;
297;SDS011;133;49.626;9.680;2023-07-31T06:52:34;3.83;;;3.40;;
297;SDS011;133;49.626;9.680;2023-07-31T06:55:14;4.87;;;3.23;;
297;SDS011;133;49.626;9.680;2023-07-31T06:57:45;4.73;;;3.23;;
297;SDS011;133;49.626;9.680;2023-07-31T07:00:12;6.20;;;3.33;;
297;SDS011;133;49.626;9.680;2023-07-31T07:02:38;7.90;;;3.87;;
297;SDS011;133;49.626;9.680;2023-07-31T07:05:04;3.47;;;3.07;;
297;SDS011;133;49.626;9.680;2023-07-31T07:07:29;5.70;;;3.60;;
297;SDS011;133;49.626;9.680;2023-07-31T07:09:55;5.50;;;3.43;;
297;SDS011;133;49.626;9.680;2023-07-31T07:12:20;8.47;;;3.37;;
297;SDS011;133;49.626;9.680;2023-07-31T07:14:46;4.90;;;3.67;;
297;SDS011;133;49.626;9.680;2023-07-31T07:17:13;4.90;;;2.70;;
297;SDS011;133;49.626;9.680;2023-07-31T07:19:41;8.00;;;3.50;;
297;SDS011;133;49.626;9.680;2023-07-31T07:22:07;8.70;;;3.80;;
297;SDS011;133;49.626;9.680;2023-07-31T07:24:32;4.37;;;3.50;;
297;SDS011;133;49.626;9.680;2023-07-31T07:26:58;4.80;;;3.40;;
297;SDS011;133;49.626;9.680;2023-07-31T07:29:24;6.00;;;3.30;;
297;SDS011;133;49.626;9.680;2023-07-31T07:31:49;6.57;;;3.83;;
297;SDS011;133;49.626;9.680;2023-07-31T07:34:15;3.97;;;3.37;;
297;SDS011;133;49.626;9.680;2023-07-31T07:36:41;6.00;;;3.27;;
297;SDS011;133;49.626;9.680;2023-07-31T07:39:06;5.00;;;3.30;;
297;SDS011;133;49.626;9.680;2023-07-31T07:41:33;5.17;;;3.37;;
297;SDS011;133;49.626;9.680;2023-07-31T07:43:58;4.90;;;3.13;;
297;SDS011;133;49.626;9.680;2023-07-31T07:46:24;6.87;;;3.63;;
297;SDS011;133;49.626;9.680;2023-07-31T07:48:50;10.03;;;3.67;;
297;SDS011;133;49.626;9.680;2023-07-31T07:51:16;5.10;;;3.53;;
297;SDS011;133;49.626;9.680;2023-07-31T07:53:41;7.33;;;3.37;;
297;SDS011;133;49.626;9.680;2023-07-31T07:56:07;6.00;;;3.27;;
297;SDS011;133;49.626;9.680;2023-07-31T07:58:33;4.77;;;3.27;;
297;SDS011;133;49.626;9.680;2023-07-31T08:00:58;5.37;;;3.30;;
297;SDS011;133;49.626;9.680;2023-07-31T08:03:24;4.13;;;3.23;;
297;SDS011;133;49.626;9.680;2023-07-31T08:05:50;9.43;;;3.53;;
297;SDS011;133;49.626;9.680;2023-07-31T08:08:15;4.20;;;3.30;;
297;SDS011;133;49.626;9.680;2023-07-31T08:10:42;8.07;;;3.77;;
297;SDS011;133;49.626;9.680;2023-07-31T08:13:09;6.93;;;3.60;;
297;SDS011;133;49.626;9.680;2023-07-31T08:15:38;5.87;;;3.50;;
297;SDS011;133;49.626;9.680;2023-07-31T08:18:06;4.23;;;3.43;;
297;SDS011;133;49.626;9.680;2023-07-31T08:20:32;10.17;;;3.20;;
297;SDS011;133;49.626;9.680;2023-07-31T08:22:58;3.90;;;3.27;;
297;SDS011;133;49.626;9.680;2023-07-31T08:25:23;5.37;;;3.07;;
297;SDS011;133;49.626;9.680;2023-07-31T08:27:49;4.00;;;3.40;;
297;SDS011;133;49.626;9.680;2023-07-31T08:30:17;5.13;;;3.53;;
297;SDS011;133;49.626;9.680;2023-07-31T08:32:43;4.73;;;3.30;;
297;SDS011;133;49.626;9.680;2023-07-31T08:35:09;4.60;;;3.70;;
297;SDS011;133;49.626;9.680;2023-07-31T08:37:35;7.50;;;4.43;;
297;SDS011;133;49.626;9.680;2023-07-31T08:40:00;17.53;;;4.57;;
297;SDS011;133;49.626;9.680;2023-07-31T08:42:27;4.97;;;3.23;;
297;SDS011;133;49.626;9.680;2023-07-31T08:44:52;5.13;;;3.70;;
297;SDS011;133;49.626;9.680;2023-07-31T08:47:20;7.50;;;3.77;;
297;SDS011;133;49.626;9.680;2023-07-31T08:49:46;4.83;;;3.17;;
297;SDS011;133;49.626;9.680;2023-07-31T08:52:13;7.60;;;3.20;;
297;SDS011;133;49.626;9.680;2023-07-31T08:54:39;6.93;;;3.60;;
297;SDS011;133;49.626;9.680;2023-07-31T08:57:06;7.23;;;3.13;;
297;SDS011;133;49.626;9.680;2023-07-31T08:59:33;3.97;;;3.13;;
297;SDS011;133;49.626;9.680;2023-07-31T09:02:03;4.73;;;3.63;;
297;SDS011;133;49.626;9.680;2023-07-31T09:04:32;5.40;;;3.47;;
297;SDS011;133;49.626;9.680;2023-07-31T09:07:02;6.37;;;3.70;;
297;SDS011;133;49.626;9.680;2023-07-31T09:09:29;6.07;;;3.47;;
297;SDS011;133;49.626;9.680;2023-07-31T09:11:57;4.97;;;3.67;;
297;SDS011;133;49.626;9.680;2023-07-31T09:14:24;5.70;;;3.67;;
297;SDS011;133;49.626;9.680;2023-07-31T09:16:51;7.80;;;3.70;;
297;SDS011;133;49.626;9.680;2023-07-31T09:19:32;7.40;;;3.73;;
297;SDS011;133;49.626;9.680;2023-07-31T09:22:02;8.67;;;3.60;;
297;SDS011;133;49.626;9.680;2023-07-31T09:24:28;5.63;;;3.57;;
297;SDS011;133;49.626;9.680;2023-07-31T09:26:55;8.23;;;3.20;;
297;SDS011;133;49.626;9.680;2023-07-31T09:29:22;6.80;;;3.67;;
297;SDS011;133;49.626;9.680;2023-07-31T09:31:48;4.00;;;3.20;;
297;SDS011;133;49.626;9.680;2023-07-31T09:34:13;7.20;;;3.60;;
297;SDS011;133;49.626;9.680;2023-07-31T09:36:49;5.90;;;3.17;;
297;SDS011;133;49.626;9.680;2023-07-31T09:39:15;6.20;;;3.60;;
297;SDS011;133;49.626;9.680;2023-07-31T09:42:15;4.57;;;3.30;;
297;SDS011;133;49.626;9.680;2023-07-31T09:44:38;8.73;;;3.70;;
297;SDS011;133;49.626;9.680;2023-07-31T09:47:20;6.43;;;3.60;;
297;SDS011;133;49.626;9.680;2023-07-31T09:49:48;5.67;;;3.63;;
297;SDS011;133;49.626;9.680;2023-07-31T09:52:14;6.70;;;3.50;;
297;SDS011;133;49.626;9.680;2023-07-31T09:54:40;7.23;;;3.60;;
297;SDS011;133;49.626;9.680;2023-07-31T09:57:05;6.23;;;3.57;;
297;SDS011;133;49.626;9.680;2023-07-31T09:59:33;8.90;;;3.77;;
297;SDS011;133;49.626;9.680;2023-07-31T10:01:59;5.40;;;3.47;;
297;SDS011;133;49.626;9.680;2023-07-31T10:04:25;5.43;;;3.50;;
297;SDS011;133;49.626;9.680;2023-07-31T10:06:52;7.50;;;3.90;;
297;SDS011;133;49.626;9.680;2023-07-31T10:09:19;4.67;;;3.60;;
297;SDS011;133;49.626;9.680;2023-07-31T10:11:47;7.03;;;3.63;;
297;SDS011;133;49.626;9.680;2023-07-31T10:14:21;8.60;;;3.97;;
297;SDS011;133;49.626;9.680;2023-07-31T10:16:48;8.80;;;3.80;;
297;SDS011;133;49.626;9.680;2023-07-31T10:19:15;6.37;;;3.80;;
297;SDS011;133;49.626;9.680;2023-07-31T10:21:43;6.40;;;3.97;;
297;SDS011;133;49.626;9.680;2023-07-31T10:24:09;5.30;;;3.50;;
297;SDS011;133;49.626;9.680;2023-07-31T10:26:34;6.10;;;3.80;;
297;SDS011;133;49.626;9.680;2023-07-31T10:29:02;10.70;;;4.10;;
297;SDS011;133;49.626;9.680;2023-07-31T10:31:28;6.67;;;3.63;;
297;SDS011;133;49.626;9.680;2023-07-31T10:33:55;5.17;;;3.40;;
297;SDS011;133;49.626;9.680;2023-07-31T10:36:22;10.83;;;3.67;;
297;SDS011;133;49.626;9.680;2023-07-31T10:38:50;10.23;;;4.03;;
297;SDS011;133;49.626;9.680;2023-07-31T10:41:16;6.10;;;4.10;;
297;SDS011;133;49.626;9.680;2023-07-31T10:43:42;5.70;;;4.10;;
297;SDS011;133;49.626;9.680;2023-07-31T10:46:11;5.23;;;3.73;;
297;SDS011;133;49.626;9.680;2023-07-31T10:48:38;6.80;;;4.03;;
297;SDS011;133;49.626;9.680;2023-07-31T10:51:10;7.57;;;3.60;;
297;SDS011;133;49.626;9.680;2023-07-31T10:53:38;14.47;;;4.03;;
297;SDS011;133;49.626;9.680;2023-07-31T10:58:32;5.90;;;3.67;;
297;SDS011;133;49.626;9.680;2023-07-31T11:01:02;8.23;;;3.87;;
297;SDS011;133;49.626;9.680;2023-07-31T11:03:48;8.63;;;3.93;;
297;SDS011;133;49.626;9.680;2023-07-31T11:06:17;5.60;;;3.23;;
297;SDS011;133;49.626;9.680;2023-07-31T11:08:44;8.70;;;3.80;;
297;SDS011;133;49.626;9.680;2023-07-31T11:11:10;5.60;;;4.63;;
297;SDS011;133;49.626;9.680;2023-07-31T11:16:14;5.70;;;3.90;;
297;SDS011;133;49.626;9.680;2023-07-31T11:18:41;7.83;;;4.03;;
297;SDS011;133;49.626;9.680;2023-07-31T11:21:11;6.73;;;3.90;;
297;SDS011;133;49.626;9.680;2023-07-31T11:23:41;6.20;;;3.77;;
297;SDS011;133;49.626;9.680;2023-07-31T11:26:10;3.90;;;3.50;;
297;SDS011;133;49.626;9.680;2023-07-31T11:28:37;8.00;;;4.10;;
297;SDS011;133;49.626;9.680;2023-07-31T11:31:03;6.03;;;4.00;;
297;SDS011;133;49.626;9.680;2023-07-31T11:33:29;5.63;;;3.57;;
297;SDS011;133;49.626;9.680;2023-07-31T11:35:55;7.87;;;4.17;;
297;SDS011;133;49.626;9.680;2023-07-31T11:38:25;5.33;;;3.77;;
297;SDS011;133;49.626;9.680;2023-07-31T11:40:56;6.23;;;3.90;;
297;SDS011;133;49.626;9.680;2023-07-31T11:43:24;5.93;;;3.73;;
297;SDS011;133;49.626;9.680;2023-07-31T11:45:52;5.40;;;4.53;;
297;SDS011;133;49.626;9.680;2023-07-31T11:48:23;10.00;;;4.27;;
297;SDS011;133;49.626;9.680;2023-07-31T11:50:52;9.10;;;4.33;;
297;SDS011;133;49.626;9.680;2023-07-31T11:53:33;7.20;;;4.20;;
297;SDS011;133;49.626;9.680;2023-07-31T11:55:59;12.23;;;5.10;;
297;SDS011;133;49.626;9.680;2023-07-31T11:58:26;8.43;;;4.60;;
297;SDS011;133;49.626;9.680;2023-07-31T12:00:53;4.30;;;3.93;;
297;SDS011;133;49.626;9.680;2023-07-31T12:03:20;8.93;;;4.20;;
297;SDS011;133;49.626;9.680;2023-07-31T12:05:47;8.03;;;4.13;;
297;SDS011;133;49.626;9.680;2023-07-31T12:08:13;9.77;;;4.13;;
297;SDS011;133;49.626;9.680;2023-07-31T12:10:40;9.90;;;4.13;;
297;SDS011;133;49.626;9.680;2023-07-31T12:13:19;7.83;;;4.27;;
297;SDS011;133;49.626;9.680;2023-07-31T12:15:46;8.40;;;4.50;;
297;SDS011;133;49.626;9.680;2023-07-31T12:18:13;8.10;;;4.23;;
297;SDS011;133;49.626;9.680;2023-07-31T12:20:47;8.40;;;4.13;;
297;SDS011;133;49.626;9.680;2023-07-31T12:23:19;7.80;;;3.93;;
297;SDS011;133;49.626;9.680;2023-07-31T12:26:04;8.80;;;4.70;;
297;SDS011;133;49.626;9.680;2023-07-31T12:28:42;5.70;;;4.20;;
297;SDS011;133;49.626;9.680;2023-07-31T12:31:10;9.83;;;5.43;;
297;SDS011;133;49.626;9.680;2023-07-31T12:33:40;5.57;;;4.00;;
297;SDS011;133;49.626;9.680;2023-07-31T12:36:11;5.13;;;4.00;;
297;SDS011;133;49.626;9.680;2023-07-31T12:38:40;6.10;;;3.63;;
297;SDS011;133;49.626;9.680;2023-07-31T12:41:07;9.63;;;4.20;;
297;SDS011;133;49.626;9.680;2023-07-31T12:43:33;6.53;;;4.00;;
297;SDS011;133;49.626;9.680;2023-07-31T12:46:03;9.63;;;4.80;;
297;SDS011;133;49.626;9.680;2023-07-31T12:48:29;6.90;;;4.03;;
297;SDS011;133;49.626;9.680;2023-07-31T12:50:55;8.30;;;4.23;;
297;SDS011;133;49.626;9.680;2023-07-31T12:53:20;7.30;;;4.00;;
297;SDS011;133;49.626;9.680;2023-07-31T12:55:46;7.70;;;4.20;;
297;SDS011;133;49.626;9.680;2023-07-31T12:58:12;5.70;;;4.10;;
297;SDS011;133;49.626;9.680;2023-07-31T13:00:38;7.60;;;5.00;;
297;SDS011;133;49.626;9.680;2023-07-31T13:03:04;6.90;;;4.20;;
297;SDS011;133;49.626;9.680;2023-07-31T13:05:30;12.07;;;4.43;;
297;SDS011;133;49.626;9.680;2023-07-31T13:07:58;6.40;;;4.03;;
297;SDS011;133;49.626;9.680;2023-07-31T13:10:24;10.27;;;4.80;;
297;SDS011;133;49.626;9.680;2023-07-31T13:12:51;6.53;;;3.87;;
297;SDS011;133;49.626;9.680;2023-07-31T13:15:17;4.80;;;4.00;;
297;SDS011;133;49.626;9.680;2023-07-31T13:17:43;7.93;;;4.30;;
297;SDS011;133;49.626;9.680;2023-07-31T13:20:09;5.37;;;3.83;;
297;SDS011;133;49.626;9.680;2023-07-31T13:22:35;9.67;;;4.53;;
297;SDS011;133;49.626;9.680;2023-07-31T13:25:01;5.23;;;3.87;;
297;SDS011;133;49.626;9.680;2023-07-31T13:27:26;10.47;;;4.30;;
297;SDS011;133;49.626;9.680;2023-07-31T13:29:52;7.30;;;4.40;;
297;SDS011;133;49.626;9.680;2023-07-31T13:32:18;6.87;;;4.10;;
297;SDS011;133;49.626;9.680;2023-07-31T13:34:47;6.90;;;4.00;;
297;SDS011;133;49.626;9.680;2023-07-31T13:37:14;8.20;;;4.27;;
297;SDS011;133;49.626;9.680;2023-07-31T13:39:41;9.63;;;4.57;;
297;SDS011;133;49.626;9.680;2023-07-31T13:42:08;5.90;;;3.40;;
297;SDS011;133;49.626;9.680;2023-07-31T13:44:36;7.67;;;4.03;;
297;SDS011;133;49.626;9.680;2023-07-31T13:47:06;6.90;;;4.10;;
297;SDS011;133;49.626;9.680;2023-07-31T13:49:33;7.33;;;4.00;;
297;SDS011;133;49.626;9.680;2023-07-31T13:51:59;6.30;;;3.83;;
297;SDS011;133;49.626;9.680;2023-07-31T13:54:25;6.40;;;4.00;;
297;SDS011;133;49.626;9.680;2023-07-31T13:56:51;6.90;;;4.60;;
297;SDS011;133;49.626;9.680;2023-07-31T13:59:18;8.23;;;4.27;;
297;SDS011;133;49.626;9.680;2023-07-31T14:01:44;8.70;;;4.00;;
297;SDS011;133;49.626;9.680;2023-07-31T14:04:10;5.10;;;4.00;;
297;SDS011;133;49.626;9.680;2023-07-31T14:06:36;6.87;;;3.67;;
297;SDS011;133;49.626;9.680;2023-07-31T14:09:02;8.40;;;4.30;;
297;SDS011;133;49.626;9.680;2023-07-31T14:11:28;6.47;;;4.10;;
297;SDS011;133;49.626;9.680;2023-07-31T14:13:55;7.73;;;4.37;;
297;SDS011;133;49.626;9.680;2023-07-31T14:16:21;8.30;;;4.17;;
297;SDS011;133;49.626;9.680;2023-07-31T14:18:47;4.60;;;3.90;;
297;SDS011;133;49.626;9.680;2023-07-31T14:21:13;8.03;;;3.63;;
297;SDS011;133;49.626;9.680;2023-07-31T14:23:39;7.37;;;3.90;;
297;SDS011;133;49.626;9.680;2023-07-31T14:26:05;9.60;;;5.30;;
297;SDS011;133;49.626;9.680;2023-07-31T14:28:31;7.23;;;3.80;;
297;SDS011;133;49.626;9.680;2023-07-31T14:30:57;9.80;;;4.23;;
297;SDS011;133;49.626;9.680;2023-07-31T14:33:24;11.63;;;4.30;;
297;SDS011;133;49.626;9.680;2023-07-31T14:35:50;10.90;;;4.20;;
297;SDS011;133;49.626;9.680;2023-07-31T14:38:16;7.07;;;3.63;;
297;SDS011;133;49.626;9.680;2023-07-31T14:40:42;7.83;;;3.87;;
297;SDS011;133;49.626;9.680;2023-07-31T14:43:07;7.47;;;4.10;;
297;SDS011;133;49.626;9.680;2023-07-31T14:45:33;6.23;;;4.00;;
297;SDS011;133;49.626;9.680;2023-07-31T14:47:59;11.60;;;5.13;;
297;SDS011;133;49.626;9.680;2023-07-31T14:50:25;5.30;;;3.97;;
297;SDS011;133;49.626;9.680;2023-07-31T14:52:50;7.63;;;4.13;;
297;SDS011;133;49.626;9.680;2023-07-31T14:55:17;6.20;;;3.90;;
297;SDS011;133;49.626;9.680;2023-07-31T14:57:45;5.57;;;3.90;;
297;SDS011;133;49.626;9.680;2023-07-31T15:00:11;5.13;;;3.93;;
297;SDS011;133;49.626;9.680;2023-07-31T15:02:37;6.43;;;4.00;;
297;SDS011;133;49.626;9.680;2023-07-31T15:05:03;8.37;;;3.90;;
297;SDS011;133;49.626;9.680;2023-07-31T15:07:29;5.40;;;4.00;;
297;SDS011;133;49.626;9.680;2023-07-31T15:09:55;7.03;;;3.90;;
297;SDS011;133;49.626;9.680;2023-07-31T15:12:21;4.50;;;4.00;;
297;SDS011;133;49.626;9.680;2023-07-31T15:14:48;5.87;;;3.77;;
297;SDS011;133;49.626;9.680;2023-07-31T15:17:14;5.70;;;4.33;;
297;SDS011;133;49.626;9.680;2023-07-31T15:19:40;5.07;;;3.73;;
297;SDS011;133;49.626;9.680;2023-07-31T15:22:06;6.77;;;3.83;;
297;SDS011;133;49.626;9.680;2023-07-31T15:24:32;6.20;;;3.50;;
297;SDS011;133;49.626;9.680;2023-07-31T15:26:58;6.40;;;3.90;;
297;SDS011;133;49.626;9.680;2023-07-31T15:29:24;9.33;;;4.47;;
297;SDS011;133;49.626;9.680;2023-07-31T15:31:49;5.60;;;4.50;;
297;SDS011;133;49.626;9.680;2023-07-31T15:34:16;5.43;;;3.80;;
297;SDS011;133;49.626;9.680;2023-07-31T15:36:41;6.40;;;4.03;;
297;SDS011;133;49.626;9.680;2023-07-31T15:39:08;7.30;;;4.00;;
297;SDS011;133;49.626;9.680;2023-07-31T15:41:34;7.17;;;3.90;;
297;SDS011;133;49.626;9.680;2023-07-31T15:44:01;8.73;;;4.07;;
297;SDS011;133;49.626;9.680;2023-07-31T15:46:27;7.57;;;4.10;;
297;SDS011;133;49.626;9.680;2023-07-31T15:48:52;7.80;;;4.07;;
297;SDS011;133;49.626;9.680;2023-07-31T15:51:22;6.33;;;4.30;;